createdAt,value
2023-05-06T00:00:05.666Z,8.40
2023-05-06T00:02:32.670Z,8.40
2023-05-06T00:05:00.066Z,8.20
2023-05-06T00:07:26.894Z,8.20
2023-05-06T00:09:53.662Z,8.10
2023-05-06T00:12:20.482Z,8.20
2023-05-06T00:14:47.310Z,8.20
2023-05-06T00:17:14.172Z,8.20
2023-05-06T00:19:40.958Z,8.20
2023-05-06T00:22:07.766Z,8.10
2023-05-06T00:24:34.545Z,8.10
2023-05-06T00:27:01.846Z,8.10
2023-05-06T00:29:28.725Z,8.00
2023-05-06T00:31:55.553Z,8.00
2023-05-06T00:34:22.352Z,8.00
2023-05-06T00:36:49.297Z,8.10
2023-05-06T00:39:16.478Z,8.10
2023-05-06T00:41:43.359Z,8.00
2023-05-06T00:44:10.187Z,8.10
2023-05-06T00:46:37.374Z,8.20
2023-05-06T00:49:04.210Z,8.10
2023-05-06T00:51:31.346Z,8.10
2023-05-06T00:53:58.567Z,8.30
2023-05-06T00:56:25.378Z,8.20
2023-05-06T00:58:52.794Z,8.20
2023-05-06T01:01:22.792Z,8.20
2023-05-06T01:03:49.791Z,8.30
2023-05-06T01:06:37.836Z,8.20
2023-05-06T01:09:17.723Z,8.10
2023-05-06T01:11:56.295Z,8.10
2023-05-06T01:14:39.684Z,7.90
2023-05-06T01:17:11.011Z,7.90
2023-05-06T01:19:39.329Z,7.80
2023-05-06T01:22:07.422Z,7.90
2023-05-06T01:24:42.032Z,7.90
2023-05-06T01:27:10.677Z,8.00
2023-05-06T01:29:39.824Z,8.00
2023-05-06T01:32:15.776Z,8.00
2023-05-06T01:34:46.410Z,7.90
2023-05-06T01:37:54.416Z,7.90
2023-05-06T01:40:24.895Z,7.90
2023-05-06T01:42:52.140Z,7.80
2023-05-06T01:45:21.023Z,7.90
2023-05-06T01:47:48.395Z,8.00
2023-05-06T01:50:15.699Z,7.90
2023-05-06T01:52:42.511Z,7.90
2023-05-06T01:55:09.784Z,7.80
2023-05-06T01:57:36.920Z,7.80
2023-05-06T02:00:04.012Z,7.60
2023-05-06T02:02:31.007Z,7.50
2023-05-06T02:04:57.892Z,7.50
2023-05-06T02:07:24.679Z,7.40
2023-05-06T02:09:51.472Z,7.40
2023-05-06T02:12:18.273Z,7.30
2023-05-06T02:14:45.014Z,7.40
2023-05-06T02:17:11.821Z,7.30
2023-05-06T02:19:38.717Z,7.40
2023-05-06T02:22:05.518Z,7.40
2023-05-06T02:24:32.422Z,7.30
2023-05-06T02:26:59.214Z,7.30
2023-05-06T02:29:26.033Z,7.30
2023-05-06T02:31:52.898Z,7.30
2023-05-06T02:34:19.840Z,7.40
2023-05-06T02:36:46.625Z,7.30
2023-05-06T02:39:13.387Z,7.30
2023-05-06T02:41:40.207Z,7.30
2023-05-06T02:44:07.136Z,7.30
2023-05-06T02:46:34.573Z,7.20
2023-05-06T02:49:02.139Z,7.30
2023-05-06T02:51:28.950Z,7.30
2023-05-06T02:53:55.745Z,7.30
2023-05-06T02:56:22.513Z,7.40
2023-05-06T02:58:49.283Z,7.40
2023-05-06T03:01:16.160Z,7.40
2023-05-06T03:03:43.078Z,7.30
2023-05-06T03:06:09.912Z,7.20
2023-05-06T03:08:36.873Z,7.20
2023-05-06T03:11:03.657Z,7.20
2023-05-06T03:13:30.563Z,7.50
2023-05-06T03:15:57.416Z,7.70
2023-05-06T03:18:24.243Z,7.60
2023-05-06T03:20:51.079Z,7.70
2023-05-06T03:23:17.870Z,8.10
2023-05-06T03:25:44.806Z,8.40
2023-05-06T03:28:12.034Z,8.10
2023-05-06T03:30:39.300Z,7.80
2023-05-06T03:33:06.136Z,7.70
2023-05-06T03:35:32.946Z,7.60
2023-05-06T03:37:59.856Z,7.50
2023-05-06T03:40:26.829Z,7.50
2023-05-06T03:42:53.685Z,7.60
2023-05-06T03:45:20.509Z,7.70
2023-05-06T03:47:48.273Z,7.90
2023-05-06T03:50:15.320Z,7.80
2023-05-06T03:52:42.377Z,8.10
2023-05-06T03:55:09.974Z,9.10
2023-05-06T03:57:36.996Z,9.10
2023-05-06T04:00:04.238Z,9.00
2023-05-06T04:02:31.234Z,9.00
2023-05-06T04:04:58.162Z,9.90
2023-05-06T04:07:25.173Z,10.70
2023-05-06T04:09:51.934Z,11.80
2023-05-06T04:12:18.776Z,12.20
2023-05-06T04:14:45.683Z,12.80
2023-05-06T04:17:12.468Z,13.20
2023-05-06T04:19:39.634Z,13.70
2023-05-06T04:22:06.375Z,14.40
2023-05-06T04:24:33.879Z,14.60
2023-05-06T04:27:00.782Z,14.40
2023-05-06T04:29:27.620Z,14.10
2023-05-06T04:31:55.368Z,13.70
2023-05-06T04:34:22.177Z,13.20
2023-05-06T04:36:49.566Z,13.10
2023-05-06T04:39:18.229Z,13.10
2023-05-06T04:41:45.051Z,13.50
2023-05-06T04:44:12.757Z,14.20
2023-05-06T04:46:39.560Z,14.90
2023-05-06T04:49:06.338Z,15.40
2023-05-06T04:51:33.323Z,15.50
2023-05-06T04:54:00.137Z,15.80
2023-05-06T04:56:26.945Z,15.80
2023-05-06T04:58:53.758Z,15.90
2023-05-06T05:01:20.934Z,15.60
2023-05-06T05:03:53.364Z,15.10
2023-05-06T05:06:20.186Z,14.70
2023-05-06T05:08:47.005Z,14.90
2023-05-06T05:11:13.875Z,15.40
2023-05-06T05:13:40.680Z,15.60
2023-05-06T05:16:07.636Z,15.60
2023-05-06T05:18:34.472Z,16.30
2023-05-06T05:21:04.439Z,16.30
2023-05-06T05:23:31.315Z,16.00
2023-05-06T05:25:58.131Z,15.90
2023-05-06T05:28:24.978Z,16.30
2023-05-06T05:30:51.788Z,16.00
2023-05-06T05:33:18.696Z,16.10
2023-05-06T05:35:45.759Z,16.40
2023-05-06T05:38:15.560Z,17.00
2023-05-06T05:40:42.419Z,17.20
2023-05-06T05:43:09.252Z,17.50
2023-05-06T05:45:36.067Z,17.10
2023-05-06T05:48:02.956Z,16.70
2023-05-06T05:50:29.803Z,16.80
2023-05-06T05:52:56.625Z,17.20
2023-05-06T05:55:23.618Z,16.90
2023-05-06T05:57:50.518Z,17.30
2023-05-06T06:00:17.798Z,17.80
2023-05-06T06:02:45.153Z,18.30
2023-05-06T06:05:12.060Z,18.20
2023-05-06T06:07:39.537Z,18.00
2023-05-06T06:10:07.183Z,18.10
2023-05-06T06:12:34.010Z,18.30
2023-05-06T06:15:00.883Z,18.40
2023-05-06T06:17:27.702Z,18.80
2023-05-06T06:19:57.216Z,18.90
2023-05-06T06:22:24.276Z,18.60
2023-05-06T06:24:53.825Z,18.80
2023-05-06T06:27:20.856Z,19.20
2023-05-06T06:29:51.444Z,18.80
2023-05-06T06:32:18.375Z,18.00
2023-05-06T06:34:45.228Z,17.20
2023-05-06T06:37:12.815Z,17.60
2023-05-06T06:39:39.607Z,18.10
2023-05-06T06:42:07.090Z,18.30
2023-05-06T06:44:34.668Z,18.40
2023-05-06T06:47:01.680Z,17.70
2023-05-06T06:49:28.883Z,17.30
2023-05-06T06:51:57.454Z,17.00
2023-05-06T06:54:24.451Z,17.40
2023-05-06T06:56:55.989Z,18.20
2023-05-06T06:59:23.056Z,18.20
2023-05-06T07:01:49.981Z,18.00
2023-05-06T07:04:16.834Z,18.20
2023-05-06T07:06:43.619Z,17.50
2023-05-06T07:09:10.532Z,17.70
2023-05-06T07:11:54.976Z,17.60
2023-05-06T07:14:21.787Z,16.80
2023-05-06T07:16:50.778Z,16.60
2023-05-06T07:19:18.298Z,17.00
2023-05-06T07:21:45.079Z,16.70
2023-05-06T07:24:11.858Z,15.90
2023-05-06T07:26:39.948Z,16.10
2023-05-06T07:29:06.792Z,16.90
2023-05-06T07:31:33.861Z,16.70
2023-05-06T07:34:00.901Z,16.80
2023-05-06T07:36:28.727Z,17.50
2023-05-06T07:38:55.776Z,16.90
2023-05-06T07:41:22.629Z,16.50
2023-05-06T07:43:49.468Z,17.00
2023-05-06T07:46:16.510Z,16.90
2023-05-06T07:48:43.387Z,16.90
2023-05-06T07:51:10.276Z,16.60
2023-05-06T07:53:38.165Z,16.40
2023-05-06T07:56:05.134Z,16.20
2023-05-06T07:58:32.347Z,15.80
2023-05-06T08:01:00.129Z,15.80
2023-05-06T08:03:27.320Z,16.50
2023-05-06T08:05:55.316Z,16.30
2023-05-06T08:08:23.827Z,16.00
2023-05-06T08:10:50.667Z,15.90
2023-05-06T08:13:17.498Z,15.80
2023-05-06T08:15:44.513Z,15.60
2023-05-06T08:18:21.637Z,15.70
2023-05-06T08:20:49.454Z,15.80
2023-05-06T08:23:16.260Z,15.70
2023-05-06T08:25:43.193Z,15.10
2023-05-06T08:28:09.980Z,15.30
2023-05-06T08:30:36.951Z,15.20
2023-05-06T08:33:04.074Z,14.70
2023-05-06T08:35:31.045Z,15.40
2023-05-06T08:37:57.829Z,15.50
2023-05-06T08:40:27.013Z,15.90
2023-05-06T08:42:57.599Z,16.30
2023-05-06T08:45:24.467Z,16.10
2023-05-06T08:47:52.236Z,16.00
2023-05-06T08:50:19.124Z,15.60
2023-05-06T08:52:47.587Z,15.50
2023-05-06T08:55:14.616Z,15.70
2023-05-06T08:57:44.979Z,15.40
2023-05-06T09:00:12.408Z,15.80
2023-05-06T09:02:42.681Z,15.80
2023-05-06T09:05:11.436Z,15.40
2023-05-06T09:07:38.410Z,15.40
2023-05-06T09:10:07.146Z,15.50
2023-05-06T09:12:37.883Z,15.20
2023-05-06T09:15:05.238Z,14.90
2023-05-06T09:17:32.967Z,15.10
2023-05-06T09:20:00.177Z,15.20
2023-05-06T09:22:32.122Z,15.40
2023-05-06T09:24:59.229Z,15.30
2023-05-06T09:27:31.284Z,15.40
2023-05-06T09:30:02.223Z,15.30
2023-05-06T09:32:29.844Z,14.80
2023-05-06T09:34:56.879Z,14.70
2023-05-06T09:37:26.372Z,14.40
2023-05-06T09:39:57.882Z,14.50
2023-05-06T09:42:27.863Z,14.90
2023-05-06T09:44:58.148Z,14.80
2023-05-06T09:47:28.317Z,15.00
2023-05-06T09:49:59.437Z,15.10
2023-05-06T09:52:28.406Z,15.30
2023-05-06T09:54:55.843Z,15.00
2023-05-06T09:57:22.969Z,14.90
2023-05-06T09:59:52.270Z,15.20
2023-05-06T10:02:20.027Z,15.50
2023-05-06T10:04:49.422Z,15.60
2023-05-06T10:07:22.764Z,15.60
2023-05-06T10:09:51.492Z,15.50
2023-05-06T10:12:19.921Z,15.80
2023-05-06T10:14:47.248Z,15.60
2023-05-06T10:17:14.756Z,15.40
2023-05-06T10:19:46.184Z,15.70
2023-05-06T10:22:39.349Z,15.50
2023-05-06T10:25:35.232Z,15.30
2023-05-06T10:28:13.689Z,15.60
2023-05-06T10:30:57.856Z,15.60
2023-05-06T10:33:26.125Z,15.50
2023-05-06T10:36:18.313Z,15.50
2023-05-06T10:38:49.289Z,15.60
2023-05-06T10:41:16.965Z,16.00
2023-05-06T10:43:45.312Z,16.00
2023-05-06T10:46:13.673Z,15.60
2023-05-06T10:49:06.366Z,15.20
2023-05-06T10:51:36.536Z,14.80
2023-05-06T10:54:03.756Z,14.60
2023-05-06T10:56:33.189Z,14.80
2023-05-06T10:59:09.001Z,15.10
2023-05-06T11:01:36.607Z,15.20
2023-05-06T11:04:07.852Z,15.30
2023-05-06T11:06:51.399Z,15.50
2023-05-06T11:09:23.210Z,15.90
2023-05-06T11:11:53.155Z,15.80
2023-05-06T11:14:28.573Z,15.30
2023-05-06T11:16:57.560Z,15.40
2023-05-06T11:19:30.238Z,15.60
2023-05-06T11:21:59.001Z,15.90
2023-05-06T11:24:28.068Z,16.40
2023-05-06T11:26:56.529Z,16.60
2023-05-06T11:29:23.857Z,16.40
2023-05-06T11:31:51.397Z,16.40
2023-05-06T11:34:26.126Z,16.30
2023-05-06T11:37:03.468Z,16.20
2023-05-06T11:39:34.895Z,15.70
2023-05-06T11:42:07.885Z,15.30
2023-05-06T11:44:37.259Z,15.30
2023-05-06T11:47:06.240Z,15.50
2023-05-06T11:49:37.034Z,15.40
2023-05-06T11:52:04.185Z,15.70
2023-05-06T11:54:35.351Z,15.40
2023-05-06T11:57:03.578Z,15.10
2023-05-06T11:59:31.460Z,15.30
2023-05-06T12:02:03.207Z,15.80
2023-05-06T12:04:42.490Z,16.10
2023-05-06T12:07:11.528Z,16.60
2023-05-06T12:09:41.850Z,16.80
2023-05-06T12:12:10.015Z,16.80
2023-05-06T12:14:38.076Z,16.50
2023-05-06T12:17:05.613Z,16.30
2023-05-06T12:19:32.983Z,16.40
2023-05-06T12:22:18.937Z,16.70
2023-05-06T12:24:47.268Z,16.80
2023-05-06T12:27:14.535Z,17.10
2023-05-06T12:29:52.925Z,17.20
2023-05-06T12:32:19.828Z,17.40
2023-05-06T12:34:46.727Z,17.70
2023-05-06T12:37:27.860Z,17.60
2023-05-06T12:39:57.821Z,16.90
2023-05-06T12:42:25.921Z,16.80
2023-05-06T12:44:52.760Z,16.60
2023-05-06T12:47:22.216Z,16.40
2023-05-06T12:49:53.214Z,16.30
2023-05-06T12:52:24.483Z,16.10
2023-05-06T12:54:52.918Z,16.10
2023-05-06T12:57:20.505Z,16.40
2023-05-06T12:59:47.620Z,16.40
2023-05-06T13:02:14.863Z,16.30
2023-05-06T13:04:42.200Z,16.50
2023-05-06T13:07:09.028Z,16.50
2023-05-06T13:09:35.914Z,16.20
2023-05-06T13:12:04.572Z,16.60
2023-05-06T13:14:31.531Z,17.10
2023-05-06T13:17:01.086Z,17.10
2023-05-06T13:19:32.823Z,17.00
2023-05-06T13:22:01.062Z,16.50
2023-05-06T13:24:28.517Z,16.00
2023-05-06T13:26:56.973Z,16.40
2023-05-06T13:29:24.480Z,16.40
2023-05-06T13:31:51.676Z,16.10
2023-05-06T13:34:18.948Z,15.90
2023-05-06T13:36:46.840Z,15.70
2023-05-06T13:39:13.887Z,16.00
2023-05-06T13:41:40.840Z,16.20
2023-05-06T13:44:07.802Z,16.50
2023-05-06T13:46:34.757Z,16.30
2023-05-06T13:49:01.663Z,16.20
2023-05-06T13:51:30.743Z,16.10
2023-05-06T13:53:57.663Z,15.90
2023-05-06T13:56:24.505Z,15.70
2023-05-06T13:58:53.155Z,15.50
2023-05-06T14:01:24.437Z,15.40
2023-05-06T14:03:51.348Z,15.40
2023-05-06T14:06:18.494Z,15.40
2023-05-06T14:08:45.706Z,15.70
2023-05-06T14:11:12.614Z,16.10
2023-05-06T14:13:40.814Z,16.30
2023-05-06T14:16:08.057Z,16.10
2023-05-06T14:18:34.867Z,15.90
2023-05-06T14:21:01.858Z,16.00
2023-05-06T14:23:28.679Z,16.00
2023-05-06T14:25:55.713Z,15.90
2023-05-06T14:28:22.514Z,15.40
2023-05-06T14:30:50.976Z,15.50
2023-05-06T14:33:17.806Z,15.30
2023-05-06T14:35:46.131Z,15.30
2023-05-06T14:38:13.036Z,15.20
2023-05-06T14:40:39.863Z,15.10
2023-05-06T14:43:09.510Z,15.20
2023-05-06T14:45:36.440Z,15.20
2023-05-06T14:48:03.817Z,15.00
2023-05-06T14:50:31.301Z,14.70
2023-05-06T14:52:58.152Z,14.70
2023-05-06T14:55:25.883Z,14.80
2023-05-06T14:57:52.700Z,14.80
2023-05-06T15:00:20.585Z,14.70
2023-05-06T15:02:47.585Z,14.40
2023-05-06T15:05:15.028Z,14.50
2023-05-06T15:07:42.251Z,14.40
2023-05-06T15:10:09.383Z,14.20
2023-05-06T15:12:37.234Z,14.20
2023-05-06T15:15:05.128Z,14.00
2023-05-06T15:17:32.600Z,13.90
2023-05-06T15:19:59.817Z,13.90
2023-05-06T15:22:26.904Z,14.10
2023-05-06T15:24:53.734Z,14.20
2023-05-06T15:27:20.567Z,14.10
2023-05-06T15:29:47.352Z,14.10
2023-05-06T15:32:14.214Z,13.90
2023-05-06T15:34:41.044Z,13.70
2023-05-06T15:37:08.148Z,13.60
2023-05-06T15:39:39.146Z,13.40
2023-05-06T15:42:06.399Z,13.40
2023-05-06T15:44:33.975Z,13.20
2023-05-06T15:47:00.907Z,13.20
2023-05-06T15:52:00.595Z,13.30
2023-05-06T15:54:28.593Z,13.10
2023-05-06T15:56:56.451Z,13.20
2023-05-06T15:59:23.637Z,13.10
2023-05-06T16:02:25.730Z,13.10
2023-05-06T16:04:37.694Z,13.20
2023-05-06T16:07:04.734Z,13.20
2023-05-06T16:09:31.509Z,13.10
2023-05-06T16:11:58.370Z,13.00
2023-05-06T16:14:25.282Z,12.80
2023-05-06T16:16:52.194Z,12.90
2023-05-06T16:19:18.971Z,12.80
2023-05-06T16:21:45.761Z,12.70
2023-05-06T16:24:12.512Z,12.70
2023-05-06T16:26:39.422Z,12.70
2023-05-06T16:29:06.837Z,12.60
2023-05-06T16:31:34.036Z,12.60
2023-05-06T16:34:00.890Z,12.70
2023-05-06T16:36:28.539Z,12.70
2023-05-06T16:38:55.534Z,12.50
2023-05-06T16:41:22.426Z,12.40
2023-05-06T16:43:49.561Z,12.40
2023-05-06T16:46:16.521Z,12.30
2023-05-06T16:48:43.451Z,12.10
2023-05-06T16:51:12.227Z,12.10
2023-05-06T16:53:39.246Z,12.00
2023-05-06T16:56:06.439Z,12.10
2023-05-06T16:58:33.320Z,12.00
2023-05-06T17:01:00.171Z,11.90
2023-05-06T17:03:27.102Z,11.80
2023-05-06T17:05:54.481Z,11.70
2023-05-06T17:08:22.092Z,11.80
2023-05-06T17:10:51.238Z,11.70
2023-05-06T17:13:18.130Z,11.60
2023-05-06T17:15:44.989Z,11.50
2023-05-06T17:18:12.558Z,11.50
2023-05-06T17:20:51.676Z,11.50
2023-05-06T17:23:22.526Z,11.40
2023-05-06T17:25:49.408Z,11.30
2023-05-06T17:28:17.991Z,11.30
2023-05-06T17:30:45.450Z,11.20
2023-05-06T17:33:12.276Z,11.30
2023-05-06T17:35:39.151Z,11.20
2023-05-06T17:38:05.946Z,11.10
2023-05-06T17:40:32.820Z,11.00
2023-05-06T17:42:59.712Z,11.00
2023-05-06T17:45:28.410Z,11.10
2023-05-06T17:47:56.395Z,11.20
2023-05-06T17:50:23.602Z,11.10
2023-05-06T17:52:52.835Z,10.90
2023-05-06T17:55:21.820Z,10.90
2023-05-06T17:57:49.443Z,11.10
2023-05-06T18:00:17.004Z,11.10
2023-05-06T18:02:44.641Z,10.90
2023-05-06T18:05:12.012Z,10.90
2023-05-06T18:07:39.435Z,10.90
2023-05-06T18:10:07.212Z,10.80
2023-05-06T18:12:34.178Z,10.80
2023-05-06T18:15:01.396Z,10.90
2023-05-06T18:17:28.369Z,10.90
2023-05-06T18:19:55.504Z,10.90
2023-05-06T18:22:22.871Z,10.80
2023-05-06T18:24:54.951Z,10.80
2023-05-06T18:27:22.413Z,10.80
2023-05-06T18:29:49.581Z,10.70
2023-05-06T18:32:16.525Z,10.70
2023-05-06T18:34:43.375Z,10.60
2023-05-06T18:37:10.171Z,10.70
2023-05-06T18:39:41.911Z,10.60
2023-05-06T18:42:09.037Z,10.60
2023-05-06T18:44:35.935Z,10.60
2023-05-06T18:47:02.859Z,10.50
2023-05-06T18:49:30.965Z,10.50
2023-05-06T18:51:57.828Z,10.50
2023-05-06T18:54:24.794Z,10.50
2023-05-06T18:56:54.799Z,10.60
2023-05-06T18:59:21.958Z,10.50
2023-05-06T19:01:48.755Z,10.40
2023-05-06T19:04:16.370Z,10.50
2023-05-06T19:06:43.318Z,10.50
2023-05-06T19:09:11.254Z,10.50
2023-05-06T19:11:38.637Z,10.60
2023-05-06T19:14:05.512Z,10.60
2023-05-06T19:16:32.417Z,10.60
2023-05-06T19:18:59.382Z,10.70
2023-05-06T19:21:26.466Z,10.50
2023-05-06T19:23:54.497Z,10.50
2023-05-06T19:26:21.640Z,10.50
2023-05-06T19:28:48.723Z,10.50
2023-05-06T19:31:15.731Z,10.50
2023-05-06T19:33:43.088Z,10.60
2023-05-06T19:36:10.566Z,10.60
2023-05-06T19:38:37.784Z,10.50
2023-05-06T19:41:04.613Z,10.50
2023-05-06T19:43:31.435Z,10.50
2023-05-06T19:45:58.336Z,10.60
2023-05-06T19:48:25.192Z,10.60
2023-05-06T19:50:53.922Z,10.40
2023-05-06T19:53:22.765Z,10.20
2023-05-06T19:55:49.701Z,10.30
2023-05-06T19:58:17.325Z,10.20
2023-05-06T20:00:45.198Z,10.20
2023-05-06T20:03:12.127Z,10.30
2023-05-06T20:05:38.920Z,10.20
2023-05-06T20:08:10.736Z,10.20
2023-05-06T20:10:38.351Z,10.10
2023-05-06T20:13:06.570Z,10.00
2023-05-06T20:15:33.666Z,9.90
2023-05-06T20:18:00.604Z,10.00
2023-05-06T20:20:34.156Z,10.00
2023-05-06T20:23:02.043Z,9.90
2023-05-06T20:25:29.657Z,9.80
2023-05-06T20:27:58.686Z,9.80
2023-05-06T20:30:26.499Z,9.70
2023-05-06T20:32:53.459Z,9.70
2023-05-06T20:35:20.350Z,9.70
2023-05-06T20:37:47.159Z,9.60
2023-05-06T20:40:14.486Z,9.60
2023-05-06T20:42:41.337Z,9.50
2023-05-06T20:45:09.153Z,9.50
2023-05-06T20:47:36.676Z,9.50
2023-05-06T20:50:03.688Z,9.40
2023-05-06T20:52:30.493Z,9.40
2023-05-06T20:54:58.148Z,9.40
2023-05-06T20:57:25.204Z,9.40
2023-05-06T20:59:52.537Z,9.40
2023-05-06T21:02:19.580Z,9.30
2023-05-06T21:04:46.570Z,9.20
2023-05-06T21:07:13.350Z,9.20
2023-05-06T21:09:40.153Z,9.20
2023-05-06T21:12:07.084Z,9.20
2023-05-06T21:14:33.955Z,9.20
2023-05-06T21:17:00.748Z,9.20
2023-05-06T21:19:27.628Z,9.20
2023-05-06T21:21:54.604Z,9.10
2023-05-06T21:24:21.425Z,9.10
2023-05-06T21:26:48.624Z,9.10
2023-05-06T21:29:15.386Z,9.10
2023-05-06T21:31:42.232Z,9.10
2023-05-06T21:34:10.493Z,9.10
2023-05-06T21:36:37.318Z,9.20
2023-05-06T21:39:08.702Z,9.20
2023-05-06T21:41:36.128Z,9.10
2023-05-06T21:44:07.476Z,9.10
2023-05-06T21:46:34.972Z,9.10
2023-05-06T21:49:01.954Z,9.20
2023-05-06T21:51:32.309Z,9.10
2023-05-06T21:53:59.202Z,8.90
2023-05-06T21:56:26.024Z,8.80
2023-05-06T21:58:55.661Z,8.80
2023-05-06T22:01:26.009Z,8.70
2023-05-06T22:03:53.942Z,8.60
2023-05-06T22:06:21.484Z,8.60
2023-05-06T22:08:48.381Z,8.60
2023-05-06T22:11:15.208Z,8.60
2023-05-06T22:13:42.000Z,8.50
2023-05-06T22:16:09.862Z,8.40
2023-05-06T22:18:41.647Z,8.40
2023-05-06T22:21:09.616Z,8.40
2023-05-06T22:23:36.746Z,8.40
2023-05-06T22:26:03.645Z,8.40
2023-05-06T22:28:30.693Z,8.50
2023-05-06T22:30:57.509Z,8.40
2023-05-06T22:33:25.776Z,8.30
2023-05-06T22:35:52.674Z,8.30
2023-05-06T22:38:19.451Z,8.40
2023-05-06T22:40:46.242Z,8.40
2023-05-06T22:43:13.137Z,8.50
2023-05-06T22:45:40.066Z,8.50
2023-05-06T22:48:06.932Z,8.50
2023-05-06T22:50:33.765Z,8.40
2023-05-06T22:53:10.361Z,8.50
2023-05-06T22:55:41.571Z,8.50
2023-05-06T22:58:08.378Z,8.50
2023-05-06T23:00:35.235Z,8.40
2023-05-06T23:03:02.967Z,8.50
2023-05-06T23:05:29.789Z,8.50
2023-05-06T23:07:56.615Z,8.50
2023-05-06T23:10:23.413Z,8.60
2023-05-06T23:12:50.296Z,8.50
2023-05-06T23:15:17.223Z,8.50
2023-05-06T23:17:44.021Z,8.50
2023-05-06T23:20:12.790Z,8.50
2023-05-06T23:22:39.727Z,8.50
2023-05-06T23:25:09.092Z,8.50
2023-05-06T23:27:39.354Z,8.50
2023-05-06T23:30:07.157Z,8.60
2023-05-06T23:32:34.419Z,8.70
2023-05-06T23:35:01.775Z,8.60
2023-05-06T23:37:28.598Z,8.60
2023-05-06T23:39:56.918Z,8.50
2023-05-06T23:42:25.663Z,8.40
2023-05-06T23:44:52.733Z,8.50
2023-05-06T23:47:19.644Z,8.60
2023-05-06T23:49:46.388Z,8.50
2023-05-06T23:52:13.228Z,8.50
2023-05-06T23:54:40.040Z,8.40
2023-05-06T23:57:06.926Z,8.40
2023-05-06T23:59:33.812Z,8.20
